Pleasant View, Colorado
Current Conditions -  °F | °C
As of 8:53 PM on Friday 19 Dec 2014 (Local Time) from KCEZ Reporting Station
Clear Clear  
Wind Chill: 18°   Ceiling: Unl
Heat Index: 26°   Visibility: 10mi
Dew Point: 24°   Wind: 7mph
Humidity: 92%   Direction: 60°ENE
Pressure: 30.21"   Gusts: NA
Location:  37.59°N, 108.77°W
Report Text: KCEZ 200353Z AUTO 06006KT 10SM CLR M03/M04 A3021 RMK AO2 SLP245 T10331044
Loading
Personal Weather Stations






























Interactive Weather Map New forecast layout! Learn more

10-Day Weather Forecast

Advertisements
Track Severe Weather on mobile